sensor_id;sensor_type;location;lat;lon;timestamp;pressure;altitude;pressure_sealevel;temperature;humidity
55373;BME280;70018;47.838;16.490;2023-05-24T00:01:54;99156.84;;;10.08;89.67
55373;BME280;70018;47.838;16.490;2023-05-24T00:04:22;99160.03;;;10.07;88.67
55373;BME280;70018;47.838;16.490;2023-05-24T00:06:51;99169.94;;;10.04;89.11
55373;BME280;70018;47.838;16.490;2023-05-24T00:09:20;99167.16;;;10.04;88.33
55373;BME280;70018;47.838;16.490;2023-05-24T00:11:47;99179.03;;;10.01;88.25
55373;BME280;70018;47.838;16.490;2023-05-24T00:14:14;99186.97;;;9.99;88.26
55373;BME280;70018;47.838;16.490;2023-05-24T00:16:41;99186.19;;;9.95;88.16
55373;BME280;70018;47.838;16.490;2023-05-24T00:19:08;99186.97;;;9.92;88.32
55373;BME280;70018;47.838;16.490;2023-05-24T00:21:37;99190.16;;;9.87;88.25
55373;BME280;70018;47.838;16.490;2023-05-24T00:24:03;99188.16;;;9.84;88.22
55373;BME280;70018;47.838;16.490;2023-05-24T00:26:30;99190.16;;;9.80;88.41
55373;BME280;70018;47.838;16.490;2023-05-24T00:28:57;99190.13;;;9.76;88.27
55373;BME280;70018;47.838;16.490;2023-05-24T00:31:23;99189.34;;;9.72;88.20
55373;BME280;70018;47.838;16.490;2023-05-24T00:33:50;99190.53;;;9.68;87.98
55373;BME280;70018;47.838;16.490;2023-05-24T00:36:17;99190.13;;;9.66;88.46
55373;BME280;70018;47.838;16.490;2023-05-24T00:38:43;99193.28;;;9.64;88.50
55373;BME280;70018;47.838;16.490;2023-05-24T00:41:10;99186.16;;;9.60;88.49
55373;BME280;70018;47.838;16.490;2023-05-24T00:43:37;99184.56;;;9.59;88.12
55373;BME280;70018;47.838;16.490;2023-05-24T00:48:40;99192.50;;;9.57;88.13
55373;BME280;70018;47.838;16.490;2023-05-24T00:51:07;99194.88;;;9.55;88.05
55373;BME280;70018;47.838;16.490;2023-05-24T00:53:35;99200.81;;;9.57;87.78
55373;BME280;70018;47.838;16.490;2023-05-24T00:56:02;99185.34;;;9.56;87.64
55373;BME280;70018;47.838;16.490;2023-05-24T00:58:30;99183.00;;;9.54;87.38
55373;BME280;70018;47.838;16.490;2023-05-24T01:01:01;99182.59;;;9.52;87.06
55373;BME280;70018;47.838;16.490;2023-05-24T01:03:28;99169.13;;;9.47;86.92
55373;BME280;70018;47.838;16.490;2023-05-24T01:06:01;99172.69;;;9.44;87.15
55373;BME280;70018;47.838;16.490;2023-05-24T01:19:47;99184.06;;;9.21;86.76
55373;BME280;70018;47.838;16.490;2023-05-24T01:25:18;99187.59;;;9.01;87.31
55373;BME280;70018;47.838;16.490;2023-05-24T01:27:49;99197.06;;;9.00;86.86
55373;BME280;70018;47.838;16.490;2023-05-24T01:30:16;99196.28;;;9.03;87.13
55373;BME280;70018;47.838;16.490;2023-05-24T01:32:42;99196.66;;;9.01;87.11
55373;BME280;70018;47.838;16.490;2023-05-24T01:35:09;99207.72;;;8.94;86.67
55373;BME280;70018;47.838;16.490;2023-05-24T01:37:36;99211.25;;;8.88;86.77
55373;BME280;70018;47.838;16.490;2023-05-24T01:40:03;99207.28;;;8.85;86.55
55373;BME280;70018;47.838;16.490;2023-05-24T01:42:51;99209.22;;;8.81;87.06
55373;BME280;70018;47.838;16.490;2023-05-24T01:45:32;99205.22;;;8.68;86.90
55373;BME280;70018;47.838;16.490;2023-05-24T01:48:02;99205.22;;;8.68;87.39
55373;BME280;70018;47.838;16.490;2023-05-24T01:50:34;99201.63;;;8.64;87.58
55373;BME280;70018;47.838;16.490;2023-05-24T01:53:05;99204.00;;;8.59;87.68
55373;BME280;70018;47.838;16.490;2023-05-24T01:55:33;99207.94;;;8.57;87.46
55373;BME280;70018;47.838;16.490;2023-05-24T01:58:03;99209.09;;;8.56;87.66
55373;BME280;70018;47.838;16.490;2023-05-24T02:00:32;99203.19;;;8.58;87.43
55373;BME280;70018;47.838;16.490;2023-05-24T02:03:00;99205.50;;;8.49;87.86
55373;BME280;70018;47.838;16.490;2023-05-24T02:05:32;99211.03;;;8.45;87.77
55373;BME280;70018;47.838;16.490;2023-05-24T02:07:59;99205.84;;;8.44;87.56
55373;BME280;70018;47.838;16.490;2023-05-24T02:10:26;99204.28;;;8.43;87.67
55373;BME280;70018;47.838;16.490;2023-05-24T02:12:52;99214.16;;;8.44;87.86
55373;BME280;70018;47.838;16.490;2023-05-24T02:15:19;99212.59;;;8.43;87.46
55373;BME280;70018;47.838;16.490;2023-05-24T02:17:46;99209.34;;;8.34;87.62
55373;BME280;70018;47.838;16.490;2023-05-24T02:20:13;99212.94;;;8.38;87.38
55373;BME280;70018;47.838;16.490;2023-05-24T02:22:40;99210.13;;;8.31;88.04
55373;BME280;70018;47.838;16.490;2023-05-24T02:25:07;99214.78;;;8.20;88.17
55373;BME280;70018;47.838;16.490;2023-05-24T02:27:33;99225.03;;;8.19;88.02
55373;BME280;70018;47.838;16.490;2023-05-24T02:30:00;99218.66;;;8.12;88.27
55373;BME280;70018;47.838;16.490;2023-05-24T02:32:27;99226.41;;;7.96;88.87
55373;BME280;70018;47.838;16.490;2023-05-24T02:34:53;99235.88;;;7.94;88.68
55373;BME280;70018;47.838;16.490;2023-05-24T02:37:20;99237.53;;;8.03;88.82
55373;BME280;70018;47.838;16.490;2023-05-24T02:39:46;99241.56;;;8.09;89.03
55373;BME280;70018;47.838;16.490;2023-05-24T02:42:13;99241.56;;;8.09;88.33
55373;BME280;70018;47.838;16.490;2023-05-24T02:44:39;99238.03;;;8.12;88.04
55373;BME280;70018;47.838;16.490;2023-05-24T02:47:08;99244.75;;;8.11;88.43
55373;BME280;70018;47.838;16.490;2023-05-24T02:49:34;99243.19;;;8.13;87.84
55373;BME280;70018;47.838;16.490;2023-05-24T02:52:01;99254.66;;;8.15;87.97
55373;BME280;70018;47.838;16.490;2023-05-24T02:54:27;99251.09;;;8.15;87.54
55373;BME280;70018;47.838;16.490;2023-05-24T02:56:54;99243.19;;;8.13;87.86
55373;BME280;70018;47.838;16.490;2023-05-24T02:59:23;99247.03;;;8.05;88.23
55373;BME280;70018;47.838;16.490;2023-05-24T03:01:50;99241.06;;;8.00;87.79
55373;BME280;70018;47.838;16.490;2023-05-24T03:04:17;99243.00;;;7.99;88.19
55373;BME280;70018;47.838;16.490;2023-05-24T03:06:43;99244.63;;;8.00;88.36
55373;BME280;70018;47.838;16.490;2023-05-24T03:09:10;99247.41;;;8.04;87.78
55373;BME280;70018;47.838;16.490;2023-05-24T03:11:37;99241.47;;;8.02;88.26
55373;BME280;70018;47.838;16.490;2023-05-24T03:14:03;99255.63;;;7.93;87.88
55373;BME280;70018;47.838;16.490;2023-05-24T03:16:31;99254.78;;;7.89;87.91
55373;BME280;70018;47.838;16.490;2023-05-24T03:18:58;99255.44;;;7.75;88.51
55373;BME280;70018;47.838;16.490;2023-05-24T03:21:25;99260.06;;;7.64;89.11
55373;BME280;70018;47.838;16.490;2023-05-24T03:23:52;99250.91;;;7.57;89.36
55373;BME280;70018;47.838;16.490;2023-05-24T03:26:19;99261.53;;;7.51;88.58
55373;BME280;70018;47.838;16.490;2023-05-24T03:28:46;99268.94;;;7.47;88.80
55373;BME280;70018;47.838;16.490;2023-05-24T03:31:13;99252.78;;;7.49;89.74
55373;BME280;70018;47.838;16.490;2023-05-24T03:33:39;99250.47;;;7.51;89.83
55373;BME280;70018;47.838;16.490;2023-05-24T03:36:06;99249.22;;;7.45;89.28
55373;BME280;70018;47.838;16.490;2023-05-24T03:38:33;99255.94;;;7.48;89.25
55373;BME280;70018;47.838;16.490;2023-05-24T03:40:59;99261.19;;;7.56;89.72
55373;BME280;70018;47.838;16.490;2023-05-24T03:43:26;99259.56;;;7.55;89.69
55373;BME280;70018;47.838;16.490;2023-05-24T03:45:52;99264.69;;;7.53;89.40
55373;BME280;70018;47.838;16.490;2023-05-24T03:48:19;99269.47;;;7.56;88.94
55373;BME280;70018;47.838;16.490;2023-05-24T03:50:46;99273.44;;;7.59;89.43
55373;BME280;70018;47.838;16.490;2023-05-24T03:53:13;99272.72;;;7.65;89.54
55373;BME280;70018;47.838;16.490;2023-05-24T03:55:40;99274.75;;;7.72;89.13
55373;BME280;70018;47.838;16.490;2023-05-24T03:58:07;99264.91;;;7.74;88.55
55373;BME280;70018;47.838;16.490;2023-05-24T04:00:33;99272.81;;;7.76;88.27
55373;BME280;70018;47.838;16.490;2023-05-24T04:03:00;99275.25;;;7.84;89.00
55373;BME280;70018;47.838;16.490;2023-05-24T04:05:27;99279.63;;;7.85;88.89
55373;BME280;70018;47.838;16.490;2023-05-24T04:07:55;99282.47;;;7.92;88.49
55373;BME280;70018;47.838;16.490;2023-05-24T04:10:21;99289.31;;;8.06;88.08
55373;BME280;70018;47.838;16.490;2023-05-24T04:12:48;99290.56;;;8.12;88.00
55373;BME280;70018;47.838;16.490;2023-05-24T04:15:15;99302.50;;;8.23;88.13
55373;BME280;70018;47.838;16.490;2023-05-24T04:17:43;99301.78;;;8.29;87.87
55373;BME280;70018;47.838;16.490;2023-05-24T04:20:11;99306.19;;;8.37;87.59
55373;BME280;70018;47.838;16.490;2023-05-24T04:22:38;99307.00;;;8.41;87.54
55373;BME280;70018;47.838;16.490;2023-05-24T04:25:05;99328.03;;;8.49;87.69
55373;BME280;70018;47.838;16.490;2023-05-24T04:27:32;99327.31;;;8.56;87.48
55373;BME280;70018;47.838;16.490;2023-05-24T04:29:58;99339.22;;;8.67;87.50
55373;BME280;70018;47.838;16.490;2023-05-24T04:32:25;99332.97;;;8.77;87.25
55373;BME280;70018;47.838;16.490;2023-05-24T04:34:55;99337.44;;;8.92;86.71
55373;BME280;70018;47.838;16.490;2023-05-24T04:37:22;99326.78;;;8.98;86.36
55373;BME280;70018;47.838;16.490;2023-05-24T04:39:50;99326.84;;;9.08;86.32
55373;BME280;70018;47.838;16.490;2023-05-24T04:42:17;99326.94;;;9.23;85.96
55373;BME280;70018;47.838;16.490;2023-05-24T04:44:43;99319.47;;;9.34;85.64
55373;BME280;70018;47.838;16.490;2023-05-24T04:47:10;99310.84;;;9.49;85.23
55373;BME280;70018;47.838;16.490;2023-05-24T04:49:38;99316.41;;;9.63;84.67
55373;BME280;70018;47.838;16.490;2023-05-24T04:52:05;99306.59;;;9.83;84.28
55373;BME280;70018;47.838;16.490;2023-05-24T04:54:33;99315.34;;;10.03;84.14
55373;BME280;70018;47.838;16.490;2023-05-24T04:56:59;99310.59;;;10.21;83.05
55373;BME280;70018;47.838;16.490;2023-05-24T04:59:26;99309.06;;;10.45;82.83
55373;BME280;70018;47.838;16.490;2023-05-24T05:01:53;99314.63;;;10.70;82.60
55373;BME280;70018;47.838;16.490;2023-05-24T05:04:19;99322.94;;;10.80;81.53
55373;BME280;70018;47.838;16.490;2023-05-24T05:06:46;99330.41;;;11.01;80.84
55373;BME280;70018;47.838;16.490;2023-05-24T05:09:13;99321.56;;;11.41;80.29
55373;BME280;70018;47.838;16.490;2023-05-24T05:11:41;99334.97;;;11.74;79.94
55373;BME280;70018;47.838;16.490;2023-05-24T05:14:08;99331.00;;;11.72;78.79
55373;BME280;70018;47.838;16.490;2023-05-24T05:16:35;99330.28;;;11.57;78.75
55373;BME280;70018;47.838;16.490;2023-05-24T05:19:02;99327.16;;;11.31;78.42
55373;BME280;70018;47.838;16.490;2023-05-24T05:21:33;99331.94;;;11.37;79.20
55373;BME280;70018;47.838;16.490;2023-05-24T05:24:00;99341.47;;;11.26;79.30
55373;BME280;70018;47.838;16.490;2023-05-24T05:26:27;99345.47;;;11.21;79.63
55373;BME280;70018;47.838;16.490;2023-05-24T05:28:54;99341.44;;;11.36;79.16
55373;BME280;70018;47.838;16.490;2023-05-24T05:31:21;99351.41;;;11.30;79.18
55373;BME280;70018;47.838;16.490;2023-05-24T05:33:48;99351.78;;;11.29;79.07
55373;BME280;70018;47.838;16.490;2023-05-24T05:36:16;99355.38;;;11.29;78.77
55373;BME280;70018;47.838;16.490;2023-05-24T05:38:42;99353.38;;;11.40;77.70
55373;BME280;70018;47.838;16.490;2023-05-24T05:41:09;99358.09;;;11.43;77.58
55373;BME280;70018;47.838;16.490;2023-05-24T05:43:37;99355.28;;;11.50;77.44
55373;BME280;70018;47.838;16.490;2023-05-24T05:46:04;99355.31;;;11.54;76.88
55373;BME280;70018;47.838;16.490;2023-05-24T05:48:31;99358.88;;;11.51;76.00
55373;BME280;70018;47.838;16.490;2023-05-24T05:50:57;99368.44;;;11.39;76.06
55373;BME280;70018;47.838;16.490;2023-05-24T05:53:24;99357.66;;;11.66;75.65
55373;BME280;70018;47.838;16.490;2023-05-24T05:55:51;99370.75;;;11.72;74.57
55373;BME280;70018;47.838;16.490;2023-05-24T05:58:18;99360.44;;;11.69;74.86
55373;BME280;70018;47.838;16.490;2023-05-24T06:00:44;99363.09;;;11.91;74.72
55373;BME280;70018;47.838;16.490;2023-05-24T06:03:11;99358.69;;;11.97;73.96
55373;BME280;70018;47.838;16.490;2023-05-24T06:05:38;99370.91;;;12.17;73.83
55373;BME280;70018;47.838;16.490;2023-05-24T06:08:04;99362.94;;;12.19;72.55
55373;BME280;70018;47.838;16.490;2023-05-24T06:10:31;99369.34;;;12.09;72.34
55373;BME280;70018;47.838;16.490;2023-05-24T06:13:00;99364.34;;;11.75;71.67
55373;BME280;70018;47.838;16.490;2023-05-24T06:15:26;99368.72;;;11.77;72.60
55373;BME280;70018;47.838;16.490;2023-05-24T06:17:53;99363.84;;;12.02;72.12
55373;BME280;70018;47.838;16.490;2023-05-24T06:20:20;99367.75;;;12.15;71.71
55373;BME280;70018;47.838;16.490;2023-05-24T06:22:47;99367.00;;;12.04;70.70
55373;BME280;70018;47.838;16.490;2023-05-24T06:25:16;99374.53;;;12.07;70.45
55373;BME280;70018;47.838;16.490;2023-05-24T06:27:46;99369.31;;;12.16;69.87
55373;BME280;70018;47.838;16.490;2023-05-24T06:30:12;99376.38;;;12.34;69.69
55373;BME280;70018;47.838;16.490;2023-05-24T06:32:39;99374.38;;;12.35;68.00
55373;BME280;70018;47.838;16.490;2023-05-24T06:35:06;99373.53;;;12.38;68.61
55373;BME280;70018;47.838;16.490;2023-05-24T06:37:33;99370.31;;;12.43;68.66
55373;BME280;70018;47.838;16.490;2023-05-24T06:40:00;99383.53;;;12.32;67.03
55373;BME280;70018;47.838;16.490;2023-05-24T06:42:27;99385.53;;;12.28;66.57
55373;BME280;70018;47.838;16.490;2023-05-24T06:44:53;99388.25;;;12.42;67.25
55373;BME280;70018;47.838;16.490;2023-05-24T06:47:20;99371.31;;;12.77;66.95
55373;BME280;70018;47.838;16.490;2023-05-24T06:49:47;99376.03;;;12.80;66.48
55373;BME280;70018;47.838;16.490;2023-05-24T06:52:15;99380.22;;;12.51;66.03
55373;BME280;70018;47.838;16.490;2023-05-24T06:54:41;99383.81;;;12.48;66.20
55373;BME280;70018;47.838;16.490;2023-05-24T06:57:08;99391.63;;;12.74;66.10
55373;BME280;70018;47.838;16.490;2023-05-24T06:59:35;99388.19;;;13.00;66.22
55373;BME280;70018;47.838;16.490;2023-05-24T07:02:02;99395.50;;;13.28;65.61
55373;BME280;70018;47.838;16.490;2023-05-24T07:04:29;99398.28;;;13.65;64.85
55373;BME280;70018;47.838;16.490;2023-05-24T07:06:56;99402.06;;;13.52;64.75
55373;BME280;70018;47.838;16.490;2023-05-24T07:09:24;99398.81;;;13.57;64.51
55373;BME280;70018;47.838;16.490;2023-05-24T07:11:51;99404.09;;;13.82;64.40
55373;BME280;70018;47.838;16.490;2023-05-24T07:14:18;99411.53;;;13.58;63.13
55373;BME280;70018;47.838;16.490;2023-05-24T07:16:44;99397.69;;;13.47;63.76
55373;BME280;70018;47.838;16.490;2023-05-24T07:19:12;99401.97;;;13.59;63.84
55373;BME280;70018;47.838;16.490;2023-05-24T07:21:39;99408.66;;;13.65;62.98
55373;BME280;70018;47.838;16.490;2023-05-24T07:24:05;99413.13;;;13.59;63.14
55373;BME280;70018;47.838;16.490;2023-05-24T07:26:32;99409.69;;;13.41;61.74
55373;BME280;70018;47.838;16.490;2023-05-24T07:28:59;99410.81;;;13.10;62.33
55373;BME280;70018;47.838;16.490;2023-05-24T07:31:25;99412.91;;;12.98;62.60
55373;BME280;70018;47.838;16.490;2023-05-24T07:33:52;99416.75;;;13.12;61.54
55373;BME280;70018;47.838;16.490;2023-05-24T07:36:19;99398.09;;;13.49;61.43
55373;BME280;70018;47.838;16.490;2023-05-24T07:38:46;99407.28;;;13.80;61.13
55373;BME280;70018;47.838;16.490;2023-05-24T07:41:14;99408.06;;;13.84;60.35
55373;BME280;70018;47.838;16.490;2023-05-24T07:43:40;99397.38;;;14.09;60.28
55373;BME280;70018;47.838;16.490;2023-05-24T07:46:07;99418.69;;;13.59;59.73
55373;BME280;70018;47.838;16.490;2023-05-24T07:48:35;99406.56;;;13.35;60.52
55373;BME280;70018;47.838;16.490;2023-05-24T07:51:02;99409.94;;;13.16;61.21
55373;BME280;70018;47.838;16.490;2023-05-24T07:53:29;99413.16;;;13.15;61.49
55373;BME280;70018;47.838;16.490;2023-05-24T07:55:55;99416.78;;;13.08;61.09
55373;BME280;70018;47.838;16.490;2023-05-24T07:58:22;99424.41;;;13.00;61.92
55373;BME280;70018;47.838;16.490;2023-05-24T08:00:48;99419.31;;;12.92;61.89
55373;BME280;70018;47.838;16.490;2023-05-24T08:03:15;99429.81;;;12.77;62.05
55373;BME280;70018;47.838;16.490;2023-05-24T08:05:42;99428.81;;;13.01;61.65
55373;BME280;70018;47.838;16.490;2023-05-24T08:08:09;99437.53;;;13.03;61.82
55373;BME280;70018;47.838;16.490;2023-05-24T08:10:36;99439.16;;;12.97;61.85
55373;BME280;70018;47.838;16.490;2023-05-24T08:13:03;99435.94;;;13.02;61.69
55373;BME280;70018;47.838;16.490;2023-05-24T08:15:30;99434.94;;;13.27;61.71
55373;BME280;70018;47.838;16.490;2023-05-24T08:17:57;99438.13;;;13.25;60.68
55373;BME280;70018;47.838;16.490;2023-05-24T08:20:24;99435.66;;;13.34;60.07
55373;BME280;70018;47.838;16.490;2023-05-24T08:22:50;99442.38;;;13.81;59.94
55373;BME280;70018;47.838;16.490;2023-05-24T08:25:18;99444.41;;;14.07;58.21
55373;BME280;70018;47.838;16.490;2023-05-24T08:27:45;99435.69;;;14.05;58.11
55373;BME280;70018;47.838;16.490;2023-05-24T08:30:12;99425.00;;;14.27;57.79
55373;BME280;70018;47.838;16.490;2023-05-24T08:32:39;99436.84;;;14.42;56.87
55373;BME280;70018;47.838;16.490;2023-05-24T08:35:06;99423.84;;;14.55;56.87
55373;BME280;70018;47.838;16.490;2023-05-24T08:37:46;99417.19;;;14.72;56.69
55373;BME280;70018;47.838;16.490;2023-05-24T08:40:15;99428.38;;;14.72;56.18
55373;BME280;70018;47.838;16.490;2023-05-24T08:42:42;99427.78;;;14.61;56.04
55373;BME280;70018;47.838;16.490;2023-05-24T08:45:11;99425.44;;;14.56;55.35
55373;BME280;70018;47.838;16.490;2023-05-24T08:47:38;99424.41;;;14.96;56.48
55373;BME280;70018;47.838;16.490;2023-05-24T08:50:06;99426.16;;;15.10;53.29
55373;BME280;70018;47.838;16.490;2023-05-24T08:52:34;99425.19;;;14.73;55.29
55373;BME280;70018;47.838;16.490;2023-05-24T08:55:03;99424.53;;;14.89;55.13
55373;BME280;70018;47.838;16.490;2023-05-24T08:57:31;99438.63;;;15.05;55.30
55373;BME280;70018;47.838;16.490;2023-05-24T09:00:00;99440.53;;;15.12;54.69
55373;BME280;70018;47.838;16.490;2023-05-24T09:02:27;99443.63;;;15.17;54.93
55373;BME280;70018;47.838;16.490;2023-05-24T09:04:55;99444.22;;;15.05;55.21
55373;BME280;70018;47.838;16.490;2023-05-24T09:07:23;99450.47;;;14.63;54.39
55373;BME280;70018;47.838;16.490;2023-05-24T09:10:03;99445.09;;;14.75;54.59
55373;BME280;70018;47.838;16.490;2023-05-24T09:12:31;99441.19;;;15.19;54.05
55373;BME280;70018;47.838;16.490;2023-05-24T09:15:04;99439.06;;;15.50;53.01
55373;BME280;70018;47.838;16.490;2023-05-24T09:17:32;99446.41;;;15.64;53.30
55373;BME280;70018;47.838;16.490;2023-05-24T09:19:59;99445.06;;;14.79;53.79
55373;BME280;70018;47.838;16.490;2023-05-24T09:22:27;99446.00;;;14.69;54.83
55373;BME280;70018;47.838;16.490;2023-05-24T09:24:57;99455.44;;;14.21;54.85
55373;BME280;70018;47.838;16.490;2023-05-24T09:27:26;99450.56;;;14.25;55.66
55373;BME280;70018;47.838;16.490;2023-05-24T09:29:54;99445.81;;;14.79;53.38
55373;BME280;70018;47.838;16.490;2023-05-24T09:32:22;99448.22;;;14.81;53.49
55373;BME280;70018;47.838;16.490;2023-05-24T09:34:51;99445.56;;;14.97;52.87
55373;BME280;70018;47.838;16.490;2023-05-24T09:37:21;99446.63;;;15.73;51.94
55373;BME280;70018;47.838;16.490;2023-05-24T09:39:56;99455.91;;;15.89;51.25
55373;BME280;70018;47.838;16.490;2023-05-24T09:42:24;99445.38;;;16.36;51.01
55373;BME280;70018;47.838;16.490;2023-05-24T09:47:31;99456.06;;;16.41;49.25
55373;BME280;70018;47.838;16.490;2023-05-24T09:49:59;99450.22;;;16.88;49.94
55373;BME280;70018;47.838;16.490;2023-05-24T09:52:25;99454.09;;;16.94;49.83
55373;BME280;70018;47.838;16.490;2023-05-24T09:54:52;99456.97;;;16.90;49.52
55373;BME280;70018;47.838;16.490;2023-05-24T09:57:19;99457.41;;;16.89;48.47
55373;BME280;70018;47.838;16.490;2023-05-24T09:59:48;99455.09;;;16.83;48.61
55373;BME280;70018;47.838;16.490;2023-05-24T10:02:15;99454.72;;;16.81;48.00
55373;BME280;70018;47.838;16.490;2023-05-24T10:04:45;99456.13;;;16.38;49.13
55373;BME280;70018;47.838;16.490;2023-05-24T10:07:14;99459.06;;;16.66;49.35
55373;BME280;70018;47.838;16.490;2023-05-24T10:09:43;99452.94;;;16.71;48.94
55373;BME280;70018;47.838;16.490;2023-05-24T10:12:10;99453.47;;;16.66;48.93
55373;BME280;70018;47.838;16.490;2023-05-24T10:14:37;99443.59;;;16.78;49.45
55373;BME280;70018;47.838;16.490;2023-05-24T10:17:05;99446.34;;;16.98;48.45
55373;BME280;70018;47.838;16.490;2023-05-24T10:19:33;99457.03;;;16.87;48.78
55373;BME280;70018;47.838;16.490;2023-05-24T10:22:05;99446.13;;;16.72;48.85
55373;BME280;70018;47.838;16.490;2023-05-24T10:24:38;99466.78;;;16.98;48.35
55373;BME280;70018;47.838;16.490;2023-05-24T10:27:11;99452.78;;;16.62;48.30
55373;BME280;70018;47.838;16.490;2023-05-24T10:32:16;99447.56;;;16.45;49.32
55373;BME280;70018;47.838;16.490;2023-05-24T10:34:45;99457.72;;;16.19;49.45
55373;BME280;70018;47.838;16.490;2023-05-24T10:37:12;99450.09;;;16.39;49.47
55373;BME280;70018;47.838;16.490;2023-05-24T10:39:40;99454.03;;;16.77;48.96
55373;BME280;70018;47.838;16.490;2023-05-24T10:42:07;99459.63;;;16.77;48.80
55373;BME280;70018;47.838;16.490;2023-05-24T10:44:35;99468.63;;;16.69;49.10
55373;BME280;70018;47.838;16.490;2023-05-24T10:47:09;99468.47;;;16.40;47.65
55373;BME280;70018;47.838;16.490;2023-05-24T10:49:37;99461.09;;;15.91;48.68
55373;BME280;70018;47.838;16.490;2023-05-24T10:52:09;99464.75;;;15.88;48.44
55373;BME280;70018;47.838;16.490;2023-05-24T10:54:35;99461.75;;;16.18;49.14
55373;BME280;70018;47.838;16.490;2023-05-24T10:57:08;99464.28;;;16.12;48.86
55373;BME280;70018;47.838;16.490;2023-05-24T10:59:36;99452.88;;;16.00;48.90
55373;BME280;70018;47.838;16.490;2023-05-24T11:02:10;99451.09;;;16.29;47.99
55373;BME280;70018;47.838;16.490;2023-05-24T11:04:45;99455.38;;;16.53;47.32
55373;BME280;70018;47.838;16.490;2023-05-24T11:07:15;99446.13;;;16.72;47.30
55373;BME280;70018;47.838;16.490;2023-05-24T11:09:42;99452.94;;;16.91;46.73
55373;BME280;70018;47.838;16.490;2023-05-24T11:12:16;99448.47;;;17.10;46.28
55373;BME280;70018;47.838;16.490;2023-05-24T11:14:48;99456.66;;;16.84;46.75
55373;BME280;70018;47.838;16.490;2023-05-24T11:17:15;99443.91;;;16.64;46.64
55373;BME280;70018;47.838;16.490;2023-05-24T11:20:00;99442.50;;;16.92;46.79
55373;BME280;70018;47.838;16.490;2023-05-24T11:22:29;99433.72;;;16.90;45.91
55373;BME280;70018;47.838;16.490;2023-05-24T11:24:57;99434.44;;;17.26;46.24
55373;BME280;70018;47.838;16.490;2023-05-24T11:27:29;99435.09;;;17.62;46.15
55373;BME280;70018;47.838;16.490;2023-05-24T11:29:56;99426.13;;;17.67;45.07
55373;BME280;70018;47.838;16.490;2023-05-24T11:32:24;99431.16;;;17.88;45.34
55373;BME280;70018;47.838;16.490;2023-05-24T11:34:50;99425.28;;;18.24;44.86
55373;BME280;70018;47.838;16.490;2023-05-24T11:37:17;99437.41;;;18.75;44.51
55373;BME280;70018;47.838;16.490;2023-05-24T11:39:49;99428.28;;;18.04;42.37
55373;BME280;70018;47.838;16.490;2023-05-24T11:42:20;99429.84;;;17.48;44.84
55373;BME280;70018;47.838;16.490;2023-05-24T11:44:48;99425.84;;;17.17;45.77
55373;BME280;70018;47.838;16.490;2023-05-24T11:47:15;99432.00;;;16.96;46.76
55373;BME280;70018;47.838;16.490;2023-05-24T11:49:41;99427.09;;;17.16;46.74
55373;BME280;70018;47.838;16.490;2023-05-24T11:52:08;99423.56;;;17.28;46.45
55373;BME280;70018;47.838;16.490;2023-05-24T11:54:34;99431.78;;;17.35;46.82
55373;BME280;70018;47.838;16.490;2023-05-24T11:57:03;99442.94;;;16.90;47.46
55373;BME280;70018;47.838;16.490;2023-05-24T11:59:30;99438.56;;;16.53;48.03
55373;BME280;70018;47.838;16.490;2023-05-24T12:02:02;99431.03;;;16.66;48.02
55373;BME280;70018;47.838;16.490;2023-05-24T12:04:33;99435.59;;;16.96;48.02
55373;BME280;70018;47.838;16.490;2023-05-24T12:07:00;99437.47;;;17.31;47.53
55373;BME280;70018;47.838;16.490;2023-05-24T12:09:27;99447.16;;;17.75;46.60
55373;BME280;70018;47.838;16.490;2023-05-24T12:11:54;99437.09;;;17.62;46.71
55373;BME280;70018;47.838;16.490;2023-05-24T12:14:24;99430.59;;;18.35;46.18
55373;BME280;70018;47.838;16.490;2023-05-24T12:16:54;99446.25;;;18.07;46.04
55373;BME280;70018;47.838;16.490;2023-05-24T12:19:24;99429.50;;;17.91;44.67
55373;BME280;70018;47.838;16.490;2023-05-24T12:21:55;99436.03;;;18.00;44.59
55373;BME280;70018;47.838;16.490;2023-05-24T12:24:24;99437.63;;;17.73;44.70
55373;BME280;70018;47.838;16.490;2023-05-24T12:26:51;99451.84;;;17.66;43.62
55373;BME280;70018;47.838;16.490;2023-05-24T12:29:18;99430.44;;;17.56;45.17
55373;BME280;70018;47.838;16.490;2023-05-24T12:31:48;99424.50;;;17.82;44.00
55373;BME280;70018;47.838;16.490;2023-05-24T12:34:17;99418.84;;;17.70;44.22
55373;BME280;70018;47.838;16.490;2023-05-24T12:36:45;99422.97;;;17.65;44.47
55373;BME280;70018;47.838;16.490;2023-05-24T12:39:22;99422.56;;;17.79;44.85
55373;BME280;70018;47.838;16.490;2023-05-24T12:41:51;99423.47;;;18.18;44.99
55373;BME280;70018;47.838;16.490;2023-05-24T12:44:37;99425.03;;;17.49;44.76
55373;BME280;70018;47.838;16.490;2023-05-24T12:47:05;99421.63;;;17.25;45.63
55373;BME280;70018;47.838;16.490;2023-05-24T12:49:32;99411.13;;;16.97;45.94
55373;BME280;70018;47.838;16.490;2023-05-24T12:51:59;99410.66;;;17.14;46.07
55373;BME280;70018;47.838;16.490;2023-05-24T12:54:28;99424.97;;;17.20;44.54
55373;BME280;70018;47.838;16.490;2023-05-24T12:56:55;99425.50;;;17.15;44.62
55373;BME280;70018;47.838;16.490;2023-05-24T12:59:24;99429.84;;;17.32;44.35
55373;BME280;70018;47.838;16.490;2023-05-24T13:01:51;99423.91;;;16.98;44.42
55373;BME280;70018;47.838;16.490;2023-05-24T13:04:20;99412.63;;;17.01;44.66
55373;BME280;70018;47.838;16.490;2023-05-24T13:06:47;99417.94;;;17.28;44.80
55373;BME280;70018;47.838;16.490;2023-05-24T13:09:15;99437.72;;;17.53;45.15
55373;BME280;70018;47.838;16.490;2023-05-24T13:11:46;99422.31;;;17.29;44.88
55373;BME280;70018;47.838;16.490;2023-05-24T13:14:13;99433.44;;;16.84;46.00
55373;BME280;70018;47.838;16.490;2023-05-24T13:16:41;99435.09;;;16.65;46.23
55373;BME280;70018;47.838;16.490;2023-05-24T13:19:09;99434.34;;;16.45;45.78